Time;durP1;ratioP1;P1;durP2;ratioP2;P2;SDS_P1;SDS_P2;PMS_P1;PMS_P2;Temp;Humidity;BMP_temperature;BMP_pressure;BME280_temperature;BME280_humidity;BME280_pressure;Samples;Min_cycle;Max_cycle;Signal;HPM_P1;HPM_P2
2022/06/29 06:00:25;;;;;;;;;;;;;;;23.46;61.52;96758.75;4263177;27;10461;-78
2022/06/29 06:02:28;;;;;;;;;;;;;;;23.86;60.99;96759.66;4239765;28;6778;-79
2022/06/29 06:04:31;;;;;;;;;;;;;;;24.16;60.19;96748.66;4234752;28;5683;-81
2022/06/29 06:06:34;;;;;;;;;;;;;;;24.39;60.00;96753.38;4239642;28;5770;-78
2022/06/29 06:08:37;;;;;;;;;;;;;;;24.59;59.44;96754.31;4239369;28;5773;-82
2022/06/29 06:10:40;;;;;;;;;;;;;;;24.74;59.22;96758.75;4234026;28;5716;-80
2022/06/29 06:12:43;;;;;;;;;;;;;;;24.82;58.93;96760.84;4238486;28;7699;-74
2022/06/29 06:14:46;;;;;;;;;;;;;;;24.85;58.52;96761.09;4241640;28;5514;-79
2022/06/29 06:16:50;;;;;;;;;;;;;;;24.90;58.63;96766.44;4247733;28;5631;-83
2022/06/29 06:18:53;;;;;;;;;;;;;;;24.90;58.31;96755.63;4237259;28;6364;-75
2022/06/29 06:20:56;;;;;;;;;;;;;;;24.92;58.30;96764.28;4233583;28;5774;-75
2022/06/29 06:22:59;;;;;;;;;;;;;;;24.92;58.04;96756.16;4232779;28;5731;-74
2022/06/29 06:25:06;;;;;;;;;;;;;;;24.98;57.74;96757.72;4230054;28;5672;-73
2022/06/29 06:27:08;;;;;;;;;;;;;;;25.02;57.53;96763.38;4220563;28;5685;-74
2022/06/29 06:29:11;;;;;;;;;;;;;;;25.04;57.35;96757.69;4231327;28;5667;-75
2022/06/29 06:31:14;;;;;;;;;;;;;;;25.09;57.32;96768.44;4228430;28;6325;-74
2022/06/29 06:33:19;;;;;;;;;;;;;;;25.11;57.47;96767.06;4228236;28;5726;-74
2022/06/29 06:35:22;;;;;;;;;;;;;;;25.17;57.27;96762.44;4231780;28;5700;-74
2022/06/29 06:37:25;;;;;;;;;;;;;;;25.23;56.79;96770.19;4225993;28;5696;-74
2022/06/29 06:39:29;;;;;;;;;;;;;;;25.32;56.55;96773.06;4226216;28;5707;-74
2022/06/29 06:41:30;;;;;;;;;;;;;;;25.36;56.23;96763.28;4229282;27;5675;-76
2022/06/29 06:43:33;;;;;;;;;;;;;;;25.38;56.08;96765.72;4231685;28;5678;-75
2022/06/29 06:45:36;;;;;;;;;;;;;;;25.37;56.10;96764.91;4227665;28;5780;-74
2022/06/29 06:47:39;;;;;;;;;;;;;;;25.41;55.92;96763.22;4230574;28;6630;-76
2022/06/29 06:49:44;;;;;;;;;;;;;;;25.43;55.68;96766.44;4230736;28;5678;-75
2022/06/29 06:51:47;;;;;;;;;;;;;;;25.46;55.32;96757.75;4233286;28;5671;-75
2022/06/29 06:53:50;;;;;;;;;;;;;;;25.53;55.42;96758.22;4220407;28;5680;-76
2022/06/29 06:55:54;;;;;;;;;;;;;;;25.59;55.23;96760.84;4227709;28;5243;-76
2022/06/29 06:57:57;;;;;;;;;;;;;;;25.61;55.02;96761.38;4229106;27;5667;-76
2022/06/29 07:00:00;;;;;;;;;;;;;;;25.69;54.62;96755.28;4223569;28;5698;-76
2022/06/29 07:02:04;;;;;;;;;;;;;;;25.70;54.63;96757.75;4218590;28;6567;-76
2022/06/29 07:04:07;;;;;;;;;;;;;;;25.69;54.34;96764.25;4218407;28;5667;-77
2022/06/29 07:06:11;;;;;;;;;;;;;;;25.62;54.23;96765.69;4212926;28;5815;-78
2022/06/29 07:08:14;;;;;;;;;;;;;;;25.58;53.61;96765.44;4217330;28;5655;-76
2022/06/29 07:10:17;;;;;;;;;;;;;;;25.53;53.65;96760.09;4214431;28;5864;-77
2022/06/29 07:12:20;;;;;;;;;;;;;;;25.49;53.55;96770.72;4218028;28;5803;-77
2022/06/29 07:14:23;;;;;;;;;;;;;;;25.48;53.40;96771.81;4213328;28;5755;-76
2022/06/29 07:16:26;;;;;;;;;;;;;;;25.45;53.45;96774.28;4216674;28;5783;-82
2022/06/29 07:18:30;;;;;;;;;;;;;;;25.40;53.09;96772.44;4213362;28;6030;-74
2022/06/29 07:20:33;;;;;;;;;;;;;;;25.40;52.94;96771.63;4219251;28;5594;-84
2022/06/29 07:22:37;;;;;;;;;;;;;;;25.37;52.97;96764.91;4228919;28;5617;-85
2022/06/29 07:24:40;;;;;;;;;;;;;;;25.33;52.78;96765.75;4226092;28;5758;-84
2022/06/29 07:26:43;;;;;;;;;;;;;;;25.26;52.82;96771.53;4231336;28;5716;-86
2022/06/29 07:28:46;;;;;;;;;;;;;;;25.16;52.98;96764.31;4224266;28;5553;-85
2022/06/29 07:30:49;;;;;;;;;;;;;;;25.13;52.85;96772.19;4215017;28;5792;-77
2022/06/29 07:32:52;;;;;;;;;;;;;;;25.05;52.78;96772.84;4211166;28;5823;-78
2022/06/29 07:34:55;;;;;;;;;;;;;;;25.01;52.48;96774.44;4210059;28;5874;-79
2022/06/29 07:36:58;;;;;;;;;;;;;;;24.97;52.81;96774.22;4210586;28;5813;-80
2022/06/29 07:39:03;;;;;;;;;;;;;;;24.90;52.43;96771.84;4215749;28;5863;-80
2022/06/29 07:41:06;;;;;;;;;;;;;;;24.87;52.61;96777.81;4217980;28;5663;-78
2022/06/29 07:43:09;;;;;;;;;;;;;;;24.83;52.58;96768.69;4217479;28;5085;-79
2022/06/29 07:45:12;;;;;;;;;;;;;;;24.79;51.94;96770.31;4221666;28;5856;-79
2022/06/29 07:47:15;;;;;;;;;;;;;;;24.72;52.34;96764.47;4214590;28;5688;-81
2022/06/29 07:49:21;;;;;;;;;;;;;;;24.69;52.40;96773.16;4215562;28;7719;-84
2022/06/29 07:51:24;;;;;;;;;;;;;;;24.67;52.14;96778.00;4211236;28;5690;-81
2022/06/29 07:53:28;;;;;;;;;;;;;;;24.58;52.36;96772.41;4204860;28;5676;-77
2022/06/29 07:55:33;;;;;;;;;;;;;;;24.55;52.09;96772.16;4210826;28;6567;-66
2022/06/29 07:57:36;;;;;;;;;;;;;;;24.55;52.00;96769.47;4217049;28;5686;-71
2022/06/29 07:59:43;;;;;;;;;;;;;;;24.49;52.06;96770.59;4217584;28;5870;-75
2022/06/29 08:01:46;;;;;;;;;;;;;;;24.47;52.30;96765.50;4215763;28;5778;-70
2022/06/29 08:03:49;;;;;;;;;;;;;;;24.44;52.40;96767.94;4207385;28;5691;-71
2022/06/29 08:05:52;;;;;;;;;;;;;;;24.46;52.30;96760.34;4207253;28;5822;-70
2022/06/29 08:07:55;;;;;;;;;;;;;;;24.45;52.19;96764.13;4204572;28;5883;-71
2022/06/29 08:09:58;;;;;;;;;;;;;;;24.49;52.42;96763.31;4216501;28;5694;-71
2022/06/29 08:12:02;;;;;;;;;;;;;;;24.54;52.27;96767.84;4217128;28;5786;-71
2022/06/29 08:14:05;;;;;;;;;;;;;;;24.55;52.19;96764.06;4218692;28;5675;-71
2022/06/29 08:16:09;;;;;;;;;;;;;;;24.56;52.11;96765.66;4217657;28;5678;-71
2022/06/29 08:18:12;;;;;;;;;;;;;;;24.57;51.98;96769.97;4203791;28;5831;-70
2022/06/29 08:20:14;;;;;;;;;;;;;;;24.58;51.99;96766.22;4215069;28;5639;-70
2022/06/29 08:22:17;;;;;;;;;;;;;;;24.59;52.24;96774.03;4215025;28;5679;-69
2022/06/29 08:24:20;;;;;;;;;;;;;;;24.58;51.75;96758.09;4209041;28;5703;-72
2022/06/29 08:26:23;;;;;;;;;;;;;;;24.54;51.73;96762.44;4218540;28;5802;-70
2022/06/29 08:28:50;;;;;;;;;;;;;;;24.43;52.36;96760.91;4217037;28;6552;-70
2022/06/29 08:30:53;;;;;;;;;;;;;;;24.41;52.17;96763.09;4217678;28;5687;-70
2022/06/29 08:32:56;;;;;;;;;;;;;;;24.41;52.03;96769.31;4213831;28;5127;-69
2022/06/29 08:34:59;;;;;;;;;;;;;;;24.43;52.21;96756.31;4216937;28;5678;-67
2022/06/29 08:37:08;;;;;;;;;;;;;;;24.47;51.80;96762.78;4216925;28;5683;-69
2022/06/29 08:39:12;;;;;;;;;;;;;;;24.46;51.69;96761.16;4206691;28;5715;-69
2022/06/29 08:41:15;;;;;;;;;;;;;;;24.50;52.05;96756.00;4202331;28;5663;-70
2022/06/29 08:43:20;;;;;;;;;;;;;;;24.53;52.07;96753.53;4214788;28;6302;-67
2022/06/29 08:45:25;;;;;;;;;;;;;;;24.53;52.04;96760.84;4218277;28;5801;-66
2022/06/29 08:47:28;;;;;;;;;;;;;;;24.51;52.01;96757.63;4211223;28;5742;-70
2022/06/29 08:49:31;;;;;;;;;;;;;;;24.54;52.12;96755.13;4215792;28;5679;-68
2022/06/29 08:51:35;;;;;;;;;;;;;;;24.57;52.09;96754.56;4214915;28;5212;-68
2022/06/29 08:53:41;;;;;;;;;;;;;;;24.63;52.04;96756.16;4207962;28;5095;-68
2022/06/29 08:55:46;;;;;;;;;;;;;;;24.66;51.41;96754.75;4207737;28;5667;-69
2022/06/29 08:57:50;;;;;;;;;;;;;;;24.61;52.11;96752.94;4209874;28;6330;-69
2022/06/29 08:59:54;;;;;;;;;;;;;;;24.66;52.11;96757.47;4216169;28;5739;-69
2022/06/29 09:02:05;;;;;;;;;;;;;;;24.70;51.83;96750.44;4205660;28;5748;-66
2022/06/29 09:04:08;;;;;;;;;;;;;;;24.73;52.02;96743.63;4215093;28;5766;-67
2022/06/29 09:06:11;;;;;;;;;;;;;;;24.76;51.77;96754.69;4214952;28;5675;-69
2022/06/29 09:08:14;;;;;;;;;;;;;;;24.79;51.86;96753.28;4216804;28;5739;-69
2022/06/29 09:10:19;;;;;;;;;;;;;;;24.80;51.98;96755.72;4216714;28;5847;-69
2022/06/29 09:12:22;;;;;;;;;;;;;;;24.82;52.03;96755.44;4215204;28;5715;-68
2022/06/29 09:14:28;;;;;;;;;;;;;;;24.83;52.20;96755.16;4212175;28;6459;-70
2022/06/29 09:16:30;;;;;;;;;;;;;;;24.84;52.11;96751.38;4214648;28;5659;-71
2022/06/29 09:18:35;;;;;;;;;;;;;;;24.86;51.87;96745.66;4212907;28;5688;-67
2022/06/29 09:20:39;;;;;;;;;;;;;;;24.87;51.91;96753.50;4208050;28;5746;-67
2022/06/29 09:22:53;;;;;;;;;;;;;;;24.88;51.93;96757.81;4211394;28;5783;-70
2022/06/29 09:24:56;;;;;;;;;;;;;;;24.87;51.87;96749.97;4203427;28;5692;-70
2022/06/29 09:27:19;;;;;;;;;;;;;;;24.85;51.97;96747.56;4203554;28;5791;-68
2022/06/29 09:29:24;;;;;;;;;;;;;;;24.84;52.24;96750.56;4213266;28;5701;-68
2022/06/29 09:31:27;;;;;;;;;;;;;;;24.84;52.12;96750.56;4217428;28;5786;-69
2022/06/29 09:33:31;;;;;;;;;;;;;;;24.85;52.23;96752.97;4216367;28;5750;-68
2022/06/29 09:35:37;;;;;;;;;;;;;;;24.84;51.98;96745.97;4201821;28;5813;-69
2022/06/29 09:37:40;;;;;;;;;;;;;;;24.87;51.81;96745.38;4200701;28;5715;-69
2022/06/29 09:39:45;;;;;;;;;;;;;;;24.90;52.03;96750.22;4206511;28;5795;-69
2022/06/29 09:41:48;;;;;;;;;;;;;;;24.91;52.01;96749.13;4201944;28;5883;-68
2022/06/29 09:43:52;;;;;;;;;;;;;;;24.91;51.92;96746.41;4204624;28;5791;-69
2022/06/29 09:45:55;;;;;;;;;;;;;;;24.93;51.85;96743.44;4217623;28;5117;-69
2022/06/29 09:47:58;;;;;;;;;;;;;;;24.92;51.70;96745.34;4216081;28;5774;-70
2022/06/29 09:50:01;;;;;;;;;;;;;;;24.93;51.79;96740.75;4215202;28;5775;-70
2022/06/29 09:52:07;;;;;;;;;;;;;;;24.94;51.38;96743.16;4216080;28;5785;-70
2022/06/29 09:54:11;;;;;;;;;;;;;;;24.94;51.30;96732.34;4212966;28;5697;-70
2022/06/29 09:56:20;;;;;;;;;;;;;;;24.96;51.74;96742.88;4210667;28;5700;-72
2022/06/29 09:58:34;;;;;;;;;;;;;;;24.98;51.81;96736.06;4217192;28;5766;-72
2022/06/29 10:02:59;;;;;;;;;;;;;;;24.98;51.78;96740.69;4211294;28;5697;-69
2022/06/29 10:05:04;;;;;;;;;;;;;;;25.00;51.70;96734.97;4206144;28;5594;-70
2022/06/29 10:07:10;;;;;;;;;;;;;;;24.98;51.59;96741.47;4205475;28;5659;-70
2022/06/29 10:09:13;;;;;;;;;;;;;;;25.00;51.63;96741.19;4204441;28;5744;-70
2022/06/29 10:13:49;;;;;;;;;;;;;;;25.05;51.61;96743.88;4213478;28;5782;-67
2022/06/29 10:16:09;;;;;;;;;;;;;;;25.07;51.70;96746.31;4211604;28;5685;-67
2022/06/29 10:18:23;;;;;;;;;;;;;;;25.08;51.86;96739.78;4203297;28;5696;-68
2022/06/29 10:20:37;;;;;;;;;;;;;;;25.09;51.85;96738.69;4215002;28;5781;-68
2022/06/29 10:22:42;;;;;;;;;;;;;;;25.10;51.47;96738.41;4203118;28;5692;-68
2022/06/29 10:25:04;;;;;;;;;;;;;;;25.12;52.03;96728.09;4206791;28;6749;-68
2022/06/29 10:27:08;;;;;;;;;;;;;;;25.14;51.81;96727.81;4202401;28;5678;-68
2022/06/29 10:29:31;;;;;;;;;;;;;;;25.14;51.91;96722.41;4205205;28;5693;-66
2022/06/29 10:32:00;;;;;;;;;;;;;;;25.15;52.07;96724.03;4207015;28;5730;-67
2022/06/29 10:34:38;;;;;;;;;;;;;;;25.16;51.56;96722.94;4213314;28;5876;-67
2022/06/29 10:36:58;;;;;;;;;;;;;;;25.20;51.68;96713.94;4202995;28;5720;-67
2022/06/29 10:39:12;;;;;;;;;;;;;;;25.23;51.80;96716.06;4207491;28;5921;-68
2022/06/29 10:43:33;;;;;;;;;;;;;;;25.27;51.83;96712.81;4218558;28;5671;-68
2022/06/29 10:45:42;;;;;;;;;;;;;;;25.27;51.41;96707.41;4216587;28;5807;-68
2022/06/29 10:47:48;;;;;;;;;;;;;;;25.30;51.68;96704.91;4214761;28;5791;-68
2022/06/29 10:50:22;;;;;;;;;;;;;;;25.30;51.28;96701.41;4211924;28;5758;-68
2022/06/29 10:52:26;;;;;;;;;;;;;;;25.34;51.50;96699.72;4214446;28;6401;-67
2022/06/29 10:54:32;;;;;;;;;;;;;;;25.36;51.14;96692.91;4217222;28;5663;-68
2022/06/29 10:56:37;;;;;;;;;;;;;;;25.42;51.07;96702.59;4213883;28;5791;-71
2022/06/29 10:58:39;;;;;;;;;;;;;;;25.44;51.38;96689.56;4218113;28;6385;-71
2022/06/29 11:00:45;;;;;;;;;;;;;;;25.45;51.08;96690.38;4211651;28;5689;-73
2022/06/29 11:02:49;;;;;;;;;;;;;;;25.48;51.35;96689.78;4214109;28;5679;-72
2022/06/29 11:04:52;;;;;;;;;;;;;;;25.49;51.19;96691.44;4206539;28;5704;-71
2022/06/29 11:12:02;;;;;;;;;;;;;;;25.55;51.02;96691.06;4206496;28;5755;-69
2022/06/29 11:15:39;;;;;;;;;;;;;;;25.57;51.19;96693.47;4209310;28;5821;-70
2022/06/29 11:16:39;;;;;;;;;;;;;;;25.57;50.92;96698.06;4219027;28;5674;-70
2022/06/29 11:18:42;;;;;;;;;;;;;;;25.54;51.08;96686.75;4218974;28;6333;-69
2022/06/29 11:20:48;;;;;;;;;;;;;;;25.55;50.89;96691.06;4215051;28;5870;-69
2022/06/29 11:22:52;;;;;;;;;;;;;;;25.56;50.92;96686.44;4216090;28;5772;-73
2022/06/29 11:24:58;;;;;;;;;;;;;;;25.58;50.92;96688.84;4211007;28;5739;-75
2022/06/29 11:27:02;;;;;;;;;;;;;;;25.59;50.84;96688.56;4218857;28;5766;-65
2022/06/29 11:29:05;;;;;;;;;;;;;;;25.59;51.10;96682.34;4218741;28;5810;-69
2022/06/29 11:31:10;;;;;;;;;;;;;;;25.60;50.72;96679.38;4218436;28;6389;-69
2022/06/29 11:33:13;;;;;;;;;;;;;;;25.61;50.86;96680.97;4218480;28;5909;-71
2022/06/29 11:35:18;;;;;;;;;;;;;;;25.62;51.01;96673.66;4208236;28;5685;-70
2022/06/29 11:37:23;;;;;;;;;;;;;;;25.61;50.80;96682.88;4217619;28;5683;-69
2022/06/29 11:39:26;;;;;;;;;;;;;;;25.61;50.81;96666.63;4215134;28;5809;-67
2022/06/29 11:43:03;;;;;;;;;;;;;;;25.63;50.89;96669.84;4205488;28;5869;-68
2022/06/29 11:44:02;;;;;;;;;;;;;;;25.63;50.64;96664.44;4209200;28;5663;-67
2022/06/29 11:46:06;;;;;;;;;;;;;;;25.64;50.37;96668.75;4202786;28;5730;-68
2022/06/29 11:48:16;;;;;;;;;;;;;;;25.63;50.59;96675.25;4209473;28;5659;-67
2022/06/29 11:50:19;;;;;;;;;;;;;;;25.65;50.48;96667.66;4216478;28;5675;-67
2022/06/29 11:52:33;;;;;;;;;;;;;;;25.66;50.13;96663.84;4218875;28;5850;-67
2022/06/29 11:54:38;;;;;;;;;;;;;;;25.66;49.95;96659.22;4208514;28;5744;-69
2022/06/29 11:56:44;;;;;;;;;;;;;;;25.69;50.29;96661.38;4214527;28;5105;-74
2022/06/29 11:58:49;;;;;;;;;;;;;;;25.73;50.06;96653.50;4215666;28;5928;-73
2022/06/29 12:00:56;;;;;;;;;;;;;;;25.76;49.76;96658.31;4209097;28;5672;-73
2022/06/29 12:02:59;;;;;;;;;;;;;;;25.76;49.71;96656.41;4214480;28;5687;-74
2022/06/29 12:05:03;;;;;;;;;;;;;;;25.77;49.81;96651.78;4218623;28;5792;-71
2022/06/29 12:07:09;;;;;;;;;;;;;;;25.76;49.54;96648.28;4218296;28;5672;-72
2022/06/29 12:09:12;;;;;;;;;;;;;;;25.76;49.56;96648.28;4218795;28;5668;-73
2022/06/29 12:11:24;;;;;;;;;;;;;;;25.77;49.47;96646.38;4218412;28;5666;-76
2022/06/29 12:13:27;;;;;;;;;;;;;;;25.77;49.61;96646.38;4209447;28;5712;-76
2022/06/29 12:15:31;;;;;;;;;;;;;;;25.80;49.44;96640.38;4213833;28;5683;-73
2022/06/29 12:17:36;;;;;;;;;;;;;;;25.82;49.22;96646.28;4211430;28;5709;-75
2022/06/29 12:19:40;;;;;;;;;;;;;;;25.85;49.23;96637.59;4210412;28;5667;-73
2022/06/29 12:21:44;;;;;;;;;;;;;;;25.87;48.89;96629.97;4205970;28;6363;-71
2022/06/29 12:23:49;;;;;;;;;;;;;;;25.91;49.28;96627.47;4207547;28;5656;-74
2022/06/29 12:25:54;;;;;;;;;;;;;;;25.96;49.02;96625.50;4212485;28;5770;-74
2022/06/29 12:28:11;;;;;;;;;;;;;;;25.97;48.76;96621.69;4208855;28;5751;-71
2022/06/29 12:30:17;;;;;;;;;;;;;;;25.97;48.81;96621.69;4207374;28;5787;-72
2022/06/29 12:32:23;;;;;;;;;;;;;;;25.97;48.80;96616.28;4208900;28;5798;-79
2022/06/29 12:34:31;;;;;;;;;;;;;;;26.00;48.73;96612.97;4216688;28;5754;-76
2022/06/29 12:36:37;;;;;;;;;;;;;;;26.05;48.92;96612.91;4230210;27;5829;-75
2022/06/29 12:38:40;;;;;;;;;;;;;;;26.08;48.95;96612.31;4212452;28;5692;-77
2022/06/29 12:40:43;;;;;;;;;;;;;;;26.11;48.54;96617.13;4206351;28;5132;-77
2022/06/29 12:42:47;;;;;;;;;;;;;;;26.14;48.54;96610.31;4211560;28;5891;-75
2022/06/29 12:44:50;;;;;;;;;;;;;;;26.17;48.81;96611.63;4216908;28;5668;-75
2022/06/29 12:46:53;;;;;;;;;;;;;;;26.19;48.96;96601.31;4210821;28;5692;-72
2022/06/29 12:48:57;;;;;;;;;;;;;;;26.22;48.64;96601.50;4215354;28;5748;-73
2022/06/29 12:51:04;;;;;;;;;;;;;;;26.26;48.54;96604.41;4209749;28;5709;-73
2022/06/29 12:53:07;;;;;;;;;;;;;;;26.27;48.52;96603.31;4216002;28;6721;-74
2022/06/29 12:55:10;;;;;;;;;;;;;;;26.32;48.77;96595.91;4213441;28;5850;-68
2022/06/29 12:57:17;;;;;;;;;;;;;;;26.37;48.48;96595.81;4212480;28;5388;-68
2022/06/29 12:59:21;;;;;;;;;;;;;;;26.38;48.60;96593.91;4216203;28;5692;-68
2022/06/29 13:01:24;;;;;;;;;;;;;;;26.35;48.62;96586.38;4206908;28;5681;-69
2022/06/29 13:03:28;;;;;;;;;;;;;;;26.33;48.72;96586.66;4212935;28;5781;-69
2022/06/29 13:05:32;;;;;;;;;;;;;;;26.34;48.51;96585.56;4217697;28;5686;-68
2022/06/29 13:07:37;;;;;;;;;;;;;;;26.36;48.68;96583.38;4216156;28;5686;-68
2022/06/29 13:09:40;;;;;;;;;;;;;;;26.35;48.69;96579.03;4217997;28;6373;-68
2022/06/29 13:11:43;;;;;;;;;;;;;;;26.35;48.63;96579.03;4209599;28;5801;-72
2022/06/29 13:13:46;;;;;;;;;;;;;;;26.33;48.85;96581.25;4201316;28;5796;-72
2022/06/29 13:15:49;;;;;;;;;;;;;;;26.34;48.58;96576.63;4212420;28;5754;-74
2022/06/29 13:17:54;;;;;;;;;;;;;;;26.35;48.58;96578.22;4204120;28;5801;-76
2022/06/29 13:19:57;;;;;;;;;;;;;;;26.37;48.81;96582.28;4216903;28;5675;-74
2022/06/29 13:22:00;;;;;;;;;;;;;;;26.38;48.45;96575.75;4207976;28;5687;-74
2022/06/29 13:24:05;;;;;;;;;;;;;;;26.39;48.74;96574.69;4215609;28;5098;-75
2022/06/29 13:26:08;;;;;;;;;;;;;;;26.40;48.66;96570.06;4214465;28;5841;-73
2022/06/29 13:28:11;;;;;;;;;;;;;;;26.41;48.76;96577.09;4218256;28;5675;-75
2022/06/29 13:30:15;;;;;;;;;;;;;;;26.42;48.38;96573.25;4217160;28;5897;-75
2022/06/29 13:32:18;;;;;;;;;;;;;;;26.42;48.51;96570.56;4218252;28;5817;-75
2022/06/29 13:34:24;;;;;;;;;;;;;;;26.43;48.64;96569.44;4217005;28;5675;-72
2022/06/29 13:36:28;;;;;;;;;;;;;;;26.44;48.81;96560.22;4200445;28;5863;-75
2022/06/29 13:38:30;;;;;;;;;;;;;;;26.47;48.82;96558.81;4201589;28;5705;-76
2022/06/29 13:40:35;;;;;;;;;;;;;;;26.46;48.71;96562.63;4201476;28;5689;-75
2022/06/29 13:42:38;;;;;;;;;;;;;;;26.46;48.56;96557.19;4206325;28;5861;-72
2022/06/29 13:45:01;;;;;;;;;;;;;;;26.46;48.49;96558.00;4210463;28;5671;-73
2022/06/29 13:47:05;;;;;;;;;;;;;;;26.51;48.72;96562.53;4209024;28;5708;-69
2022/06/29 13:49:08;;;;;;;;;;;;;;;26.51;48.61;96555.22;4204549;28;5726;-69
2022/06/29 13:51:11;;;;;;;;;;;;;;;26.51;48.56;96555.22;4208472;28;5690;-70
2022/06/29 13:53:14;;;;;;;;;;;;;;;26.50;48.59;96553.56;4210260;28;5101;-71
2022/06/29 13:55:18;;;;;;;;;;;;;;;26.48;48.88;96549.56;4213902;28;5907;-73
2022/06/29 13:57:22;;;;;;;;;;;;;;;26.50;48.62;96552.78;4210801;28;5783;-73
2022/06/29 13:59:25;;;;;;;;;;;;;;;26.51;48.71;96547.06;4208656;28;5706;-71
2022/06/29 14:01:28;;;;;;;;;;;;;;;26.54;48.71;96551.88;4211096;28;5672;-71
2022/06/29 14:03:33;;;;;;;;;;;;;;;26.55;48.40;96545.34;4214262;28;7760;-70
2022/06/29 14:05:36;;;;;;;;;;;;;;;26.54;48.40;96543.75;4219540;28;5678;-70
2022/06/29 14:07:39;;;;;;;;;;;;;;;26.56;48.20;96538.81;4211111;28;6904;-69
2022/06/29 14:10:01;;;;;;;;;;;;;;;26.56;48.36;96546.16;4206461;28;5746;-70
2022/06/29 14:12:05;;;;;;;;;;;;;;;26.54;48.25;96543.75;4213420;28;6483;-69
2022/06/29 14:14:09;;;;;;;;;;;;;;;26.57;48.20;96535.00;4215815;28;5883;-71
2022/06/29 14:16:16;;;;;;;;;;;;;;;26.60;48.24;96526.25;4213959;28;5686;-71
2022/06/29 14:18:20;;;;;;;;;;;;;;;26.64;47.85;96534.63;4218058;28;5708;-71
2022/06/29 14:20:23;;;;;;;;;;;;;;;26.68;48.05;96531.00;4211813;28;5783;-74
2022/06/29 14:22:26;;;;;;;;;;;;;;;26.68;47.74;96533.69;4213226;28;6368;-72
2022/06/29 14:24:29;;;;;;;;;;;;;;;26.67;47.89;96529.38;4212726;28;5842;-76
2022/06/29 14:26:33;;;;;;;;;;;;;;;26.66;47.79;96529.69;4208203;28;5708;-73
2022/06/29 14:28:38;;;;;;;;;;;;;;;26.68;47.69;96522.84;4217298;28;6142;-74
2022/06/29 14:30:43;;;;;;;;;;;;;;;26.68;47.52;96528.28;4215659;28;5703;-73
2022/06/29 14:32:45;;;;;;;;;;;;;;;26.67;47.50;96526.69;4215239;28;5808;-74
2022/06/29 14:34:49;;;;;;;;;;;;;;;26.65;47.10;96528.88;4218630;28;5699;-71
2022/06/29 14:36:52;;;;;;;;;;;;;;;26.64;47.26;96513.72;4226743;28;5748;-73
2022/06/29 14:38:55;;;;;;;;;;;;;;;26.64;47.09;96516.44;4215214;28;5748;-72
2022/06/29 14:40:58;;;;;;;;;;;;;;;26.65;46.72;96512.63;4214362;28;5784;-72
2022/06/29 14:43:02;;;;;;;;;;;;;;;26.67;46.85;96510.41;4217841;28;5822;-72
2022/06/29 14:45:05;;;;;;;;;;;;;;;26.73;46.59;96507.56;4219786;28;5900;-72
2022/06/29 14:47:09;;;;;;;;;;;;;;;26.72;46.76;96503.25;4218223;28;5962;-70
2022/06/29 14:49:12;;;;;;;;;;;;;;;26.70;46.75;96506.28;4224570;28;5841;-73
2022/06/29 14:51:17;;;;;;;;;;;;;;;26.73;46.68;96502.97;4214682;28;5699;-74
2022/06/29 14:53:20;;;;;;;;;;;;;;;26.77;46.36;96493.13;4215255;28;5674;-70
2022/06/29 14:55:24;;;;;;;;;;;;;;;26.80;46.47;96499.84;4216828;28;5723;-71
2022/06/29 14:57:28;;;;;;;;;;;;;;;26.80;46.58;96499.84;4219317;28;5678;-72
2022/06/29 14:59:31;;;;;;;;;;;;;;;26.80;46.27;96497.13;4212915;28;5693;-73
2022/06/29 15:01:34;;;;;;;;;;;;;;;26.80;46.35;96499.84;4213377;28;5816;-67
2022/06/29 15:03:39;;;;;;;;;;;;;;;26.80;46.05;96502.56;4227720;28;5653;-69
2022/06/29 15:05:42;;;;;;;;;;;;;;;26.78;46.08;96499.34;4211938;28;5801;-69
2022/06/29 15:07:45;;;;;;;;;;;;;;;26.80;46.13;96497.13;4217764;28;5667;-69
2022/06/29 15:09:48;;;;;;;;;;;;;;;26.82;45.98;96495.72;4215595;28;6920;-68
2022/06/29 15:11:54;;;;;;;;;;;;;;;26.82;46.18;96494.91;4211590;28;6487;-68
2022/06/29 15:13:57;;;;;;;;;;;;;;;26.82;45.95;96486.78;4213613;28;5667;-69
2022/06/29 15:16:00;;;;;;;;;;;;;;;26.80;46.13;96489.00;4215008;28;5804;-68
2022/06/29 15:18:03;;;;;;;;;;;;;;;26.82;45.76;96492.19;4216662;28;6473;-68
2022/06/29 15:20:09;;;;;;;;;;;;;;;26.82;45.73;96494.91;4215032;28;5668;-66
2022/06/29 15:22:12;;;;;;;;;;;;;;;26.82;46.10;96484.06;4208589;28;6370;-67
2022/06/29 15:24:14;;;;;;;;;;;;;;;26.80;46.08;96489.00;4210307;28;5692;-68
2022/06/29 15:26:17;;;;;;;;;;;;;;;26.78;46.04;96480.38;4215314;28;7223;-66
2022/06/29 15:28:20;;;;;;;;;;;;;;;26.79;46.16;96479.25;4210208;28;5671;-67
2022/06/29 15:30:26;;;;;;;;;;;;;;;26.81;46.06;96482.47;4219818;28;5657;-68
2022/06/29 15:32:29;;;;;;;;;;;;;;;26.79;45.91;96482.78;4206512;27;5815;-70
2022/06/29 15:39:14;;;;;;;;;;;;;;;26.81;46.12;96468.91;4213835;28;5754;-70
2022/06/29 15:41:18;;;;;;;;;;;;;;;26.84;46.17;96476.41;4222656;27;5766;-70
2022/06/29 15:43:22;;;;;;;;;;;;;;;26.85;46.16;96467.19;4208830;28;5810;-68
2022/06/29 15:45:25;;;;;;;;;;;;;;;26.85;45.91;96475.34;4213556;28;5683;-70
2022/06/29 15:47:28;;;;;;;;;;;;;;;26.85;45.82;96467.19;4216625;28;6002;-70
2022/06/29 15:49:30;;;;;;;;;;;;;;;26.85;45.88;96467.19;4217759;28;5849;-72
2022/06/29 15:51:33;;;;;;;;;;;;;;;26.85;45.99;96465.28;4209876;28;5786;-72
2022/06/29 15:55:58;;;;;;;;;;;;;;;26.89;46.11;96462.75;4207169;28;6797;-71
2022/06/29 15:58:01;;;;;;;;;;;;;;;26.88;46.08;96461.16;4207247;28;5683;-72
2022/06/29 16:00:05;;;;;;;;;;;;;;;26.88;46.29;96463.88;4213670;28;5750;-71
2022/06/29 16:02:08;;;;;;;;;;;;;;;26.86;46.26;96458.75;4206904;28;5667;-70
2022/06/29 16:04:11;;;;;;;;;;;;;;;26.88;46.21;96455.75;4220260;28;6345;-70
2022/06/29 16:06:14;;;;;;;;;;;;;;;26.87;46.14;96457.66;4225533;27;5762;-70
2022/06/29 16:08:23;;;;;;;;;;;;;;;26.91;46.25;96455.91;4216666;28;5675;-74
2022/06/29 16:10:27;;;;;;;;;;;;;;;26.89;46.18;96449.19;4212153;28;5679;-73
2022/06/29 16:12:32;;;;;;;;;;;;;;;26.91;46.02;96457.84;4209562;28;5688;-72
2022/06/29 16:14:36;;;;;;;;;;;;;;;26.89;45.90;96455.44;4209972;28;5667;-74
2022/06/29 16:16:39;;;;;;;;;;;;;;;26.88;46.01;96453.03;4210350;28;5675;-71
2022/06/29 16:18:42;;;;;;;;;;;;;;;26.85;45.94;96440.88;4208531;28;6901;-71
2022/06/29 16:20:45;;;;;;;;;;;;;;;26.84;46.18;96438.47;4209495;28;5679;-73
2022/06/29 16:22:48;;;;;;;;;;;;;;;26.84;46.24;96438.47;4212902;28;6004;-72
2022/06/29 16:24:51;;;;;;;;;;;;;;;26.84;45.93;96430.31;4206433;28;5824;-72
2022/06/29 16:26:56;;;;;;;;;;;;;;;26.85;46.29;96427.31;4216135;28;6358;-68
2022/06/29 16:28:59;;;;;;;;;;;;;;;26.85;46.27;96431.94;4209673;28;5754;-70
2022/06/29 16:31:02;;;;;;;;;;;;;;;26.84;46.07;96428.44;4213410;28;5663;-72
2022/06/29 16:33:05;;;;;;;;;;;;;;;26.84;46.39;96424.91;4209715;28;5816;-70
2022/06/29 16:35:09;;;;;;;;;;;;;;;26.84;46.10;96422.19;4204594;28;5700;-70
2022/06/29 16:37:12;;;;;;;;;;;;;;;26.85;46.39;96424.63;4210768;28;5824;-66
2022/06/29 16:39:15;;;;;;;;;;;;;;;26.89;46.29;96432.94;4210690;28;5770;-70
2022/06/29 16:41:21;;;;;;;;;;;;;;;26.89;46.04;96431.03;4217104;28;5671;-66
2022/06/29 16:43:25;;;;;;;;;;;;;;;26.89;46.20;96419.38;4206922;28;5700;-69
2022/06/29 16:45:28;;;;;;;;;;;;;;;26.90;46.02;96426.41;4222386;28;6354;-69
2022/06/29 16:47:31;;;;;;;;;;;;;;;26.88;45.73;96428.63;4212901;28;6401;-67
2022/06/29 16:49:34;;;;;;;;;;;;;;;26.85;46.22;96423.81;4211839;28;5687;-72
2022/06/29 16:51:37;;;;;;;;;;;;;;;26.86;45.93;96420.00;4209786;28;5683;-73
2022/06/29 16:53:59;;;;;;;;;;;;;;;26.85;46.14;96416.47;4216950;28;5815;-72
2022/06/29 16:56:03;;;;;;;;;;;;;;;26.85;46.02;96423.81;4208674;28;5802;-74
2022/06/29 16:58:06;;;;;;;;;;;;;;;26.83;45.88;96410.53;4213472;28;5672;-72
2022/06/29 17:00:11;;;;;;;;;;;;;;;26.84;46.00;96422.19;4210337;28;5794;-73
2022/06/29 17:02:14;;;;;;;;;;;;;;;26.84;45.95;96417.59;4210762;28;5991;-73
2022/06/29 17:04:17;;;;;;;;;;;;;;;26.83;45.58;96410.53;4213135;28;5667;-73
2022/06/29 17:06:20;;;;;;;;;;;;;;;26.82;45.61;96408.94;4209900;28;5763;-73
2022/06/29 17:08:23;;;;;;;;;;;;;;;26.83;45.90;96409.72;4211293;28;5795;-73
2022/06/29 17:10:26;;;;;;;;;;;;;;;26.82;45.91;96418.97;4209425;28;5765;-73
2022/06/29 17:12:29;;;;;;;;;;;;;;;26.81;45.58;96417.38;4208911;28;5778;-73
2022/06/29 17:14:32;;;;;;;;;;;;;;;26.80;45.58;96410.34;4207416;28;5898;-73
2022/06/29 17:16:36;;;;;;;;;;;;;;;26.80;45.61;96415.78;4204895;28;5869;-73
2022/06/29 17:18:39;;;;;;;;;;;;;;;26.79;45.76;96414.97;4206601;28;5881;-73